createdAt,value
2018-09-30T03:56:30.093Z,0.0
2018-09-30T04:41:34.446Z,0.0
2018-09-30T04:54:10.173Z,0.0
2018-09-30T05:52:42.997Z,744.0
2018-09-30T06:04:43.152Z,1152.0
2018-09-30T06:16:54.459Z,1436.0
2018-09-30T07:04:13.599Z,2604.0
2018-09-30T07:45:29.275Z,37728.0
2018-09-30T08:19:03.881Z,48288.0
2018-09-30T08:31:55.909Z,59424.0
2018-09-30T08:44:20.853Z,59616.0
2018-09-30T09:11:50.466Z,61664.0
2018-09-30T09:24:29.489Z,66816.0
2018-09-30T09:37:14.282Z,73152.0
2018-09-30T09:47:28.602Z,74016.0
2018-09-30T09:57:43.023Z,76320.0
2018-09-30T10:07:57.216Z,80448.0
2018-09-30T10:21:22.816Z,87552.0
2018-09-30T10:35:21.287Z,46784.0
2018-09-30T10:47:22.978Z,56704.0
2018-09-30T10:57:44.257Z,67584.0
2018-09-30T11:10:14.713Z,90144.0
2018-09-30T11:21:02.484Z,97248.0
2018-09-30T11:31:13.826Z,38560.0
2018-09-30T11:42:07.495Z,85024.0
2018-09-30T11:54:16.174Z,48096.0
2018-09-30T12:05:39.681Z,44576.0
2018-09-30T12:15:54.892Z,23200.0
2018-09-30T12:26:13.793Z,20416.0
2018-09-30T12:36:56.030Z,21088.0
2018-09-30T12:48:39.454Z,24320.0
2018-09-30T12:59:30.697Z,14944.0
2018-09-30T13:10:33.371Z,13532.0
2018-09-30T13:25:28.849Z,9372.0
2018-09-30T14:03:36.669Z,6204.0
2018-09-30T14:14:24.168Z,5148.0
2018-09-30T20:58:51.200Z,0.0
2018-09-30T21:09:05.303Z,0.0
2018-09-30T21:21:24.596Z,0.0
2018-09-30T21:35:12.987Z,0.0
2018-09-30T21:47:30.750Z,0.0
2018-09-30T22:11:15.868Z,0.0
2018-09-30T22:23:26.798Z,0.0
2018-09-30T22:36:07.632Z,0.0
2018-09-30T22:46:22.624Z,0.0
2018-09-30T22:56:38.233Z,0.0
2018-09-30T23:08:30.812Z,0.0
2018-09-30T23:21:39.976Z,0.0
2018-09-30T23:33:48.712Z,0.0
2018-09-30T23:45:42.729Z,0.0
2018-09-30T23:58:05.663Z,0.0
